createdAt,value
2024-02-21T00:00:49.147Z,6.00
2024-02-21T00:03:15.815Z,6.00
2024-02-21T00:05:42.320Z,7.00
2024-02-21T00:08:09.064Z,8.00
2024-02-21T00:13:20.079Z,6.20
2024-02-21T00:15:46.521Z,7.00
2024-02-21T00:18:13.502Z,7.00
2024-02-21T00:20:40.054Z,8.00
2024-02-21T00:23:06.503Z,11.00
2024-02-21T00:25:33.133Z,8.00
2024-02-21T00:27:59.551Z,8.00
2024-02-21T00:30:25.988Z,7.00
2024-02-21T00:32:52.447Z,6.00
2024-02-21T00:35:19.025Z,5.00
2024-02-21T00:37:45.515Z,6.40
2024-02-21T00:40:12.212Z,5.00
2024-02-21T00:42:38.639Z,5.60
2024-02-21T00:45:05.406Z,6.00
2024-02-21T00:47:31.923Z,9.00
2024-02-21T00:49:58.462Z,7.00
2024-02-21T00:52:24.919Z,7.60
2024-02-21T00:54:54.550Z,5.60
2024-02-21T00:57:21.739Z,5.00
2024-02-21T00:59:48.161Z,5.00
2024-02-21T01:02:14.761Z,6.00
2024-02-21T01:04:41.396Z,5.80
2024-02-21T01:07:07.896Z,5.00
2024-02-21T01:09:34.308Z,4.20
2024-02-21T01:12:00.806Z,6.20
2024-02-21T01:14:27.319Z,6.00
2024-02-21T01:16:53.932Z,7.00
2024-02-21T01:19:20.478Z,5.00
2024-02-21T01:21:46.953Z,7.00
2024-02-21T01:24:13.361Z,5.00
2024-02-21T01:26:39.811Z,5.00
2024-02-21T01:29:06.250Z,5.00
2024-02-21T01:31:32.717Z,4.40
2024-02-21T01:33:59.397Z,4.25
2024-02-21T01:36:25.851Z,5.00
2024-02-21T01:38:52.295Z,6.00
2024-02-21T01:41:18.780Z,6.20
2024-02-21T01:43:45.893Z,6.00
2024-02-21T01:46:12.535Z,5.00
2024-02-21T01:48:39.144Z,6.40
2024-02-21T01:51:05.924Z,8.00
2024-02-21T01:53:35.795Z,7.00
2024-02-21T01:56:02.773Z,6.60
2024-02-21T01:58:29.987Z,7.50
2024-02-21T02:00:57.599Z,8.00
2024-02-21T02:03:24.231Z,7.40
2024-02-21T02:05:51.145Z,7.00
2024-02-21T02:08:18.444Z,9.00
2024-02-21T02:10:45.259Z,7.60
2024-02-21T02:13:11.913Z,8.60
2024-02-21T02:15:39.004Z,8.00
2024-02-21T02:18:05.516Z,8.00
2024-02-21T02:20:32.131Z,8.75
2024-02-21T02:23:00.548Z,7.00
2024-02-21T02:25:27.512Z,8.00
2024-02-21T02:27:54.501Z,7.00
2024-02-21T02:30:20.901Z,9.00
2024-02-21T02:32:47.707Z,9.00
2024-02-21T02:35:14.402Z,10.00
2024-02-21T02:37:40.986Z,8.00
2024-02-21T02:40:08.082Z,8.00
2024-02-21T02:42:34.477Z,9.00
2024-02-21T02:45:00.876Z,9.00
2024-02-21T02:47:27.378Z,9.00
2024-02-21T02:49:53.922Z,9.00
2024-02-21T02:52:20.980Z,8.00
2024-02-21T02:54:52.769Z,7.25
2024-02-21T02:57:19.554Z,7.00
2024-02-21T02:59:52.404Z,8.80
2024-02-21T03:02:18.835Z,9.00
2024-02-21T03:04:45.466Z,8.00
2024-02-21T03:07:15.148Z,7.25
2024-02-21T03:09:41.698Z,9.00
2024-02-21T03:12:08.334Z,12.00
2024-02-21T03:14:34.832Z,9.00
2024-02-21T03:17:01.363Z,8.33
2024-02-21T03:19:28.138Z,9.00
2024-02-21T03:21:54.815Z,10.00
2024-02-21T03:24:21.880Z,7.60
2024-02-21T03:26:49.744Z,8.25
2024-02-21T03:29:16.672Z,7.75
2024-02-21T03:31:43.668Z,6.50
2024-02-21T03:34:13.480Z,8.60
2024-02-21T03:36:40.066Z,8.00
2024-02-21T03:39:06.506Z,7.00
2024-02-21T03:41:32.920Z,9.00
2024-02-21T03:43:59.443Z,7.00
2024-02-21T03:46:26.495Z,7.00
2024-02-21T03:48:52.943Z,7.00
2024-02-21T03:51:19.426Z,7.00
2024-02-21T03:53:45.992Z,6.80
2024-02-21T03:56:12.403Z,6.00
2024-02-21T03:58:38.964Z,6.60
2024-02-21T04:01:05.575Z,6.00
2024-02-21T04:03:32.085Z,6.00
2024-02-21T04:05:58.603Z,7.00
2024-02-21T04:08:25.418Z,8.00
2024-02-21T04:10:51.825Z,7.00
2024-02-21T04:13:18.316Z,6.00
2024-02-21T04:15:44.848Z,6.00
2024-02-21T04:18:11.436Z,6.00
2024-02-21T04:20:37.908Z,5.25
2024-02-21T04:23:04.477Z,6.00
2024-02-21T04:25:30.998Z,7.00
2024-02-21T04:27:57.527Z,7.25
2024-02-21T04:30:23.957Z,7.00
2024-02-21T04:32:50.426Z,6.00
2024-02-21T04:35:17.960Z,7.00
2024-02-21T04:37:44.588Z,6.40
2024-02-21T04:40:11.399Z,6.00
2024-02-21T04:42:37.978Z,6.00
2024-02-21T04:45:04.797Z,7.00
2024-02-21T04:47:31.361Z,8.00
2024-02-21T04:49:57.830Z,7.00
2024-02-21T04:52:24.313Z,6.00
2024-02-21T04:54:51.214Z,7.80
2024-02-21T04:57:18.460Z,6.00
2024-02-21T04:59:46.074Z,6.00
2024-02-21T05:02:15.110Z,6.00
2024-02-21T05:04:43.031Z,7.00
2024-02-21T05:07:09.601Z,8.00
2024-02-21T05:09:36.049Z,5.00
2024-02-21T05:12:02.496Z,7.00
2024-02-21T05:14:28.993Z,7.00
2024-02-21T05:16:55.502Z,7.00
2024-02-21T05:19:22.077Z,9.00
2024-02-21T05:21:48.521Z,9.00
2024-02-21T05:24:14.940Z,9.20
2024-02-21T05:26:41.352Z,9.00
2024-02-21T05:29:08.108Z,8.00
2024-02-21T05:32:04.153Z,8.00
2024-02-21T05:34:30.727Z,6.25
2024-02-21T05:36:58.760Z,7.00
2024-02-21T05:39:25.354Z,6.75
2024-02-21T05:41:52.001Z,6.00
2024-02-21T05:44:20.155Z,7.00
2024-02-21T05:46:47.315Z,6.60
2024-02-21T05:49:13.885Z,6.00
2024-02-21T05:51:40.423Z,6.25
2024-02-21T05:54:08.412Z,7.00
2024-02-21T05:56:35.143Z,11.50
2024-02-21T05:59:01.817Z,9.00
2024-02-21T06:01:29.236Z,8.00
2024-02-21T06:03:55.847Z,11.80
2024-02-21T06:06:26.199Z,26.25
2024-02-21T06:08:52.960Z,19.75
2024-02-21T06:11:19.420Z,21.50
2024-02-21T06:13:45.971Z,17.75
2024-02-21T06:16:12.384Z,15.00
2024-02-21T06:18:39.217Z,44.75
2024-02-21T06:21:05.783Z,25.60
2024-02-21T06:23:32.227Z,11.00
2024-02-21T06:25:58.734Z,13.00
2024-02-21T06:28:25.197Z,21.00
2024-02-21T06:30:51.633Z,19.75
2024-02-21T06:33:18.154Z,13.40
2024-02-21T06:35:47.378Z,13.00
2024-02-21T06:38:13.913Z,15.00
2024-02-21T06:40:41.488Z,11.00
2024-02-21T06:43:08.221Z,12.00
2024-02-21T06:45:34.679Z,20.00
2024-02-21T06:48:01.253Z,18.40
2024-02-21T06:50:27.828Z,20.00
2024-02-21T06:52:54.346Z,22.00
2024-02-21T06:55:21.092Z,22.00
2024-02-21T06:57:49.358Z,24.50
2024-02-21T07:00:16.120Z,22.00
2024-02-21T07:02:42.512Z,18.00
2024-02-21T07:05:09.729Z,13.00
2024-02-21T07:07:36.679Z,20.00
2024-02-21T07:10:03.344Z,17.20
2024-02-21T07:12:29.780Z,11.50
2024-02-21T07:14:56.296Z,18.80
2024-02-21T07:17:22.824Z,12.20
2024-02-21T07:19:49.516Z,7.50
2024-02-21T07:22:16.037Z,8.00
2024-02-21T07:24:42.577Z,8.00
2024-02-21T07:27:09.052Z,7.00
2024-02-21T07:29:35.581Z,12.75
2024-02-21T07:32:02.188Z,10.00
2024-02-21T07:34:28.757Z,7.00
2024-02-21T07:36:55.240Z,8.80
2024-02-21T07:39:21.642Z,7.00
2024-02-21T07:41:49.211Z,8.00
2024-02-21T07:44:18.665Z,6.00
2024-02-21T07:46:45.116Z,5.50
2024-02-21T07:49:11.657Z,7.50
2024-02-21T07:51:38.135Z,7.00
2024-02-21T07:54:05.600Z,8.00
2024-02-21T07:56:32.348Z,8.50
2024-02-21T07:58:59.031Z,11.00
2024-02-21T08:01:25.669Z,6.50
2024-02-21T08:03:52.216Z,7.75
2024-02-21T08:06:18.761Z,6.00
2024-02-21T08:08:45.272Z,8.00
2024-02-21T08:11:11.785Z,8.00
2024-02-21T08:13:38.264Z,7.00
2024-02-21T08:16:04.895Z,7.40
2024-02-21T08:18:31.430Z,7.00
2024-02-21T08:20:57.974Z,8.40
2024-02-21T08:23:24.848Z,5.00
2024-02-21T08:25:51.576Z,8.00
2024-02-21T08:28:18.047Z,5.00
2024-02-21T08:30:49.000Z,7.50
2024-02-21T08:33:16.616Z,13.75
2024-02-21T08:35:43.432Z,9.00
2024-02-21T08:38:10.080Z,9.40
2024-02-21T08:40:38.140Z,8.00
2024-02-21T08:43:04.812Z,7.00
2024-02-21T08:45:31.436Z,8.33
2024-02-21T08:47:58.149Z,8.75
2024-02-21T08:50:28.607Z,7.00
2024-02-21T08:52:56.633Z,6.80
2024-02-21T08:55:23.439Z,8.40
2024-02-21T08:57:50.114Z,9.00
2024-02-21T09:00:17.012Z,7.80
2024-02-21T09:02:46.876Z,7.00
2024-02-21T09:05:13.517Z,8.00
2024-02-21T09:07:40.308Z,9.50
2024-02-21T09:10:07.589Z,9.00
2024-02-21T09:12:34.138Z,7.20
2024-02-21T09:15:00.898Z,8.00
2024-02-21T09:17:30.794Z,8.75
2024-02-21T09:20:00.535Z,11.00
2024-02-21T09:22:27.609Z,16.00
2024-02-21T09:24:54.140Z,10.50
2024-02-21T09:27:20.557Z,8.50
2024-02-21T09:29:47.306Z,9.00
2024-02-21T09:32:15.104Z,8.00
2024-02-21T09:34:41.751Z,11.60
2024-02-21T09:37:08.375Z,8.00
2024-02-21T09:39:34.808Z,9.40
2024-02-21T09:42:05.709Z,7.60
2024-02-21T09:44:37.132Z,7.80
2024-02-21T09:47:07.213Z,7.00
2024-02-21T09:49:34.571Z,7.00
2024-02-21T09:52:05.974Z,8.00
2024-02-21T09:54:33.599Z,6.00
2024-02-21T09:57:04.319Z,7.00
2024-02-21T09:59:32.896Z,5.40
2024-02-21T10:02:03.308Z,7.00
2024-02-21T10:04:30.995Z,4.60
2024-02-21T10:06:57.739Z,5.60
2024-02-21T10:09:24.618Z,4.00
2024-02-21T10:11:52.235Z,5.00
2024-02-21T10:14:19.576Z,4.00
2024-02-21T10:16:48.261Z,4.00
2024-02-21T10:19:21.349Z,4.00
2024-02-21T10:22:00.998Z,3.00
2024-02-21T10:24:28.228Z,5.00
2024-02-21T10:27:05.018Z,4.60
2024-02-21T10:29:32.187Z,4.00
2024-02-21T10:32:05.421Z,4.50
2024-02-21T10:34:32.008Z,4.00
2024-02-21T10:37:05.009Z,5.60
2024-02-21T10:39:35.215Z,3.20
2024-02-21T10:42:05.136Z,5.00
2024-02-21T10:44:33.479Z,3.40
2024-02-21T10:47:00.198Z,5.00
2024-02-21T10:49:28.465Z,5.00
2024-02-21T10:52:16.012Z,3.60
2024-02-21T10:54:46.344Z,4.00
2024-02-21T10:57:13.733Z,5.00
2024-02-21T10:59:41.126Z,5.00
2024-02-21T11:02:08.085Z,4.60
2024-02-21T11:04:38.605Z,3.00
2024-02-21T11:07:10.552Z,3.50
2024-02-21T11:09:38.015Z,3.00
2024-02-21T11:12:05.514Z,3.00
2024-02-21T11:14:34.201Z,4.00
2024-02-21T11:17:01.289Z,4.00
2024-02-21T11:19:28.657Z,5.20
2024-02-21T11:21:56.536Z,4.00
2024-02-21T11:24:30.261Z,4.00
2024-02-21T11:27:15.362Z,5.00
2024-02-21T11:29:43.799Z,3.40
2024-02-21T11:32:16.193Z,5.75
2024-02-21T11:34:43.010Z,5.00
2024-02-21T11:37:19.094Z,4.00
2024-02-21T11:39:45.838Z,5.00
2024-02-21T11:42:13.728Z,5.00
2024-02-21T11:44:41.050Z,4.40
2024-02-21T11:47:08.580Z,4.25
2024-02-21T11:49:47.128Z,6.00
2024-02-21T11:52:16.493Z,6.00
2024-02-21T11:54:43.283Z,4.00
2024-02-21T11:57:09.929Z,5.00
2024-02-21T11:59:36.449Z,5.00
2024-02-21T12:02:04.888Z,4.80
2024-02-21T12:04:34.269Z,4.50
2024-02-21T12:07:00.925Z,5.00
2024-02-21T12:09:27.482Z,5.25
2024-02-21T12:12:01.438Z,5.75
2024-02-21T12:14:29.217Z,4.25
2024-02-21T12:16:55.964Z,4.40
2024-02-21T12:19:22.695Z,4.00
2024-02-21T12:21:51.037Z,4.00
2024-02-21T12:24:24.419Z,5.00
2024-02-21T12:26:54.710Z,5.00
2024-02-21T12:29:21.472Z,5.00
2024-02-21T12:31:48.724Z,6.25
2024-02-21T12:34:16.285Z,6.60
2024-02-21T12:36:47.902Z,4.60
2024-02-21T12:39:14.903Z,6.00
2024-02-21T12:41:45.354Z,5.00
2024-02-21T12:44:15.300Z,5.00
2024-02-21T12:46:41.772Z,5.00
2024-02-21T12:49:11.321Z,5.00
2024-02-21T12:51:39.087Z,5.25
2024-02-21T12:54:05.557Z,4.00
2024-02-21T12:56:32.291Z,5.50
2024-02-21T12:58:59.095Z,7.00
2024-02-21T13:01:25.724Z,5.00
2024-02-21T13:03:52.269Z,6.00
2024-02-21T13:06:20.157Z,5.00
2024-02-21T13:08:47.209Z,5.00
2024-02-21T13:11:13.987Z,5.50
2024-02-21T13:13:40.560Z,5.00
2024-02-21T13:16:08.066Z,6.40
2024-02-21T13:18:36.169Z,6.00
2024-02-21T13:21:02.780Z,6.33
2024-02-21T13:23:29.225Z,7.25
2024-02-21T13:25:55.683Z,6.40
2024-02-21T13:28:22.547Z,6.00
2024-02-21T13:30:49.045Z,7.60
2024-02-21T13:33:15.643Z,7.00
2024-02-21T13:35:42.201Z,6.40
2024-02-21T13:38:08.766Z,7.75
2024-02-21T13:40:35.300Z,6.00
2024-02-21T13:43:02.220Z,8.00
2024-02-21T13:45:28.899Z,5.80
2024-02-21T13:47:55.866Z,6.50
2024-02-21T13:50:22.763Z,6.00
2024-02-21T13:52:49.260Z,7.00
2024-02-21T13:55:15.842Z,6.00
2024-02-21T13:57:42.916Z,5.00
2024-02-21T14:00:12.002Z,6.20
2024-02-21T14:02:38.800Z,4.20
2024-02-21T14:05:07.220Z,5.00
2024-02-21T14:07:36.797Z,5.75
2024-02-21T14:10:04.800Z,5.00
2024-02-21T14:12:31.235Z,7.80
2024-02-21T14:14:59.437Z,6.00
2024-02-21T14:17:26.108Z,6.50
2024-02-21T14:19:55.226Z,6.00
2024-02-21T14:22:21.761Z,7.00
2024-02-21T14:24:48.211Z,5.25
2024-02-21T14:27:14.795Z,5.75
2024-02-21T14:29:41.245Z,6.00
2024-02-21T14:32:08.693Z,6.60
2024-02-21T14:34:35.256Z,7.00
2024-02-21T14:37:01.756Z,6.40
2024-02-21T14:39:28.238Z,6.00
2024-02-21T14:41:55.134Z,5.60
2024-02-21T14:44:21.636Z,5.00
2024-02-21T14:46:48.424Z,5.60
2024-02-21T14:49:16.317Z,5.00
2024-02-21T14:51:44.112Z,7.00
2024-02-21T14:54:10.778Z,6.00
2024-02-21T14:56:37.264Z,6.00
2024-02-21T14:59:09.176Z,6.50
2024-02-21T15:01:41.969Z,5.00
2024-02-21T15:04:09.236Z,6.00
2024-02-21T15:06:38.341Z,6.40
2024-02-21T15:09:05.162Z,6.00
2024-02-21T15:11:31.675Z,6.00
2024-02-21T15:13:58.214Z,5.60
2024-02-21T15:16:24.694Z,6.00
2024-02-21T15:18:51.249Z,6.00
2024-02-21T15:21:17.722Z,6.00
2024-02-21T15:23:44.922Z,5.00
2024-02-21T15:26:11.407Z,5.00
2024-02-21T15:28:37.909Z,5.00
2024-02-21T15:31:04.946Z,4.75
2024-02-21T15:33:31.858Z,6.00
2024-02-21T15:35:59.257Z,5.60
2024-02-21T15:38:26.318Z,3.00
2024-02-21T15:40:52.768Z,4.00
2024-02-21T15:43:19.233Z,5.50
2024-02-21T15:45:45.689Z,4.50
2024-02-21T15:48:14.702Z,5.00
2024-02-21T15:50:41.231Z,4.00
2024-02-21T15:53:07.811Z,4.00
2024-02-21T15:55:34.316Z,5.00
2024-02-21T15:58:00.814Z,5.33
2024-02-21T16:00:27.327Z,3.25
2024-02-21T16:02:53.760Z,4.20
2024-02-21T16:05:20.290Z,5.00
2024-02-21T16:07:46.837Z,5.00
2024-02-21T16:10:13.368Z,4.25
2024-02-21T16:12:42.209Z,4.20
2024-02-21T16:15:09.174Z,5.00
2024-02-21T16:17:35.615Z,3.60
2024-02-21T16:20:03.037Z,5.00
2024-02-21T16:22:30.283Z,4.00
2024-02-21T16:24:56.705Z,5.00
2024-02-21T16:27:23.138Z,5.00
2024-02-21T16:29:49.565Z,5.00
2024-02-21T16:32:16.086Z,4.00
2024-02-21T16:34:42.697Z,2.50
2024-02-21T16:37:09.176Z,4.60
2024-02-21T16:39:35.679Z,4.00
2024-02-21T16:42:04.784Z,5.80
2024-02-21T16:44:32.230Z,3.75
2024-02-21T16:46:59.085Z,6.00
2024-02-21T16:49:26.960Z,3.80
2024-02-21T16:51:54.041Z,3.00
2024-02-21T16:54:26.516Z,4.00
2024-02-21T16:56:53.268Z,4.80
2024-02-21T16:59:19.758Z,5.00
2024-02-21T17:01:46.374Z,2.00
2024-02-21T17:04:13.666Z,3.00
2024-02-21T17:06:40.304Z,4.50
2024-02-21T17:09:08.789Z,4.20
2024-02-21T17:11:36.470Z,2.33
2024-02-21T17:14:04.435Z,3.40
2024-02-21T17:16:31.840Z,4.00
2024-02-21T17:18:58.528Z,2.50
2024-02-21T17:21:24.975Z,4.80
2024-02-21T17:23:51.864Z,4.00
2024-02-21T17:26:19.066Z,5.00
2024-02-21T17:28:46.135Z,4.75
2024-02-21T17:31:12.593Z,4.00
2024-02-21T17:33:39.132Z,5.00
2024-02-21T17:36:05.949Z,13.25
2024-02-21T17:38:32.427Z,9.25
2024-02-21T17:40:58.923Z,7.00
2024-02-21T17:43:25.475Z,7.00
2024-02-21T17:45:51.960Z,7.00
2024-02-21T17:48:18.493Z,3.80
2024-02-21T17:50:45.052Z,5.40
2024-02-21T17:53:12.961Z,5.25
2024-02-21T17:55:39.469Z,6.00
2024-02-21T17:58:07.800Z,6.25
2024-02-21T18:00:34.257Z,9.00
2024-02-21T18:03:01.736Z,6.60
2024-02-21T18:05:28.385Z,7.00
2024-02-21T18:07:54.950Z,6.60
2024-02-21T18:10:23.071Z,6.00
2024-02-21T18:12:49.666Z,6.00
2024-02-21T18:15:16.085Z,6.50
2024-02-21T18:17:42.653Z,6.00
2024-02-21T18:20:10.358Z,5.60
2024-02-21T18:22:36.991Z,5.00
2024-02-21T18:25:03.930Z,6.25
2024-02-21T18:27:31.104Z,6.00
2024-02-21T18:29:57.524Z,6.00
2024-02-21T18:32:25.365Z,7.00
2024-02-21T18:34:52.086Z,7.20
2024-02-21T18:37:18.746Z,7.20
2024-02-21T18:39:45.206Z,9.00
2024-02-21T18:42:11.603Z,7.00
2024-02-21T18:44:38.059Z,11.60
2024-02-21T18:47:04.923Z,7.00
2024-02-21T18:49:31.613Z,10.80
2024-02-21T18:51:58.145Z,36.80
2024-02-21T18:54:24.585Z,33.00
2024-02-21T18:56:51.012Z,72.00
2024-02-21T18:59:17.541Z,87.80
2024-02-21T19:01:44.023Z,46.60
2024-02-21T19:04:10.506Z,57.75
2024-02-21T19:06:37.274Z,49.00
2024-02-21T19:09:04.328Z,52.25
2024-02-21T19:11:30.947Z,49.00
2024-02-21T19:13:57.525Z,47.00
2024-02-21T19:16:24.050Z,23.00
2024-02-21T19:18:50.534Z,47.00
2024-02-21T19:21:17.898Z,35.00
2024-02-21T19:23:44.862Z,29.25
2024-02-21T19:26:11.348Z,67.80
2024-02-21T19:28:38.042Z,47.20
2024-02-21T19:31:04.597Z,31.40
2024-02-21T19:33:31.385Z,28.40
2024-02-21T19:35:57.857Z,31.00
2024-02-21T19:38:26.543Z,54.00
2024-02-21T19:40:53.187Z,25.00
2024-02-21T19:43:19.666Z,18.80
2024-02-21T19:45:49.130Z,12.20
2024-02-21T19:48:17.034Z,22.00
2024-02-21T19:50:43.576Z,11.00
2024-02-21T19:53:10.162Z,16.00
2024-02-21T19:55:36.734Z,13.00
2024-02-21T19:58:04.218Z,13.00
2024-02-21T20:00:30.664Z,11.60
2024-02-21T20:02:57.129Z,8.00
2024-02-21T20:05:24.408Z,10.80
2024-02-21T20:07:50.993Z,11.40
2024-02-21T20:10:20.599Z,10.50
2024-02-21T20:12:48.647Z,17.40
2024-02-21T20:15:15.404Z,26.00
2024-02-21T20:17:45.215Z,15.00
2024-02-21T20:20:12.478Z,13.00
2024-02-21T20:22:38.965Z,12.00
2024-02-21T20:25:05.747Z,8.80
2024-02-21T20:27:32.193Z,13.00
2024-02-21T20:29:58.680Z,19.00
2024-02-21T20:32:25.118Z,34.75
2024-02-21T20:34:51.649Z,19.00
2024-02-21T20:37:18.232Z,17.80
2024-02-21T20:39:44.625Z,19.40
2024-02-21T20:42:11.023Z,29.60
2024-02-21T20:44:37.449Z,17.67
2024-02-21T20:47:04.272Z,30.75
2024-02-21T20:49:31.782Z,10.60
2024-02-21T20:51:58.343Z,10.00
2024-02-21T20:54:24.746Z,7.60
2024-02-21T20:56:51.174Z,8.00
2024-02-21T20:59:19.473Z,23.00
2024-02-21T21:01:54.002Z,11.75
2024-02-21T21:04:25.183Z,30.60
2024-02-21T21:06:51.705Z,10.50
2024-02-21T21:09:20.074Z,7.00
2024-02-21T21:11:47.273Z,7.25
2024-02-21T21:14:14.084Z,13.00
2024-02-21T21:16:40.655Z,13.50
2024-02-21T21:19:07.248Z,5.00
2024-02-21T21:21:33.707Z,6.00
2024-02-21T21:24:00.137Z,7.00
2024-02-21T21:26:26.602Z,8.60
2024-02-21T21:28:57.687Z,6.60
2024-02-21T21:31:27.283Z,14.75
2024-02-21T21:33:54.145Z,19.50
2024-02-21T21:36:21.545Z,11.40
2024-02-21T21:38:49.586Z,9.00
2024-02-21T21:41:16.717Z,10.60
2024-02-21T21:43:43.424Z,6.67
2024-02-21T21:46:16.227Z,8.00
2024-02-21T21:48:45.900Z,7.00
2024-02-21T21:51:12.730Z,6.00
2024-02-21T21:53:40.942Z,12.00
2024-02-21T21:56:08.017Z,9.00
2024-02-21T21:58:35.184Z,10.00
2024-02-21T22:01:01.730Z,14.00
2024-02-21T22:03:29.432Z,11.80
2024-02-21T22:05:56.099Z,8.60
2024-02-21T22:08:22.629Z,8.00
2024-02-21T22:10:50.863Z,9.25
2024-02-21T22:13:17.632Z,9.00
2024-02-21T22:15:44.329Z,6.40
2024-02-21T22:18:10.917Z,6.00
2024-02-21T22:20:38.029Z,5.40
2024-02-21T22:23:05.007Z,6.00
2024-02-21T22:25:31.516Z,4.60
2024-02-21T22:27:57.955Z,6.00
2024-02-21T22:30:25.077Z,6.00
2024-02-21T22:32:52.663Z,7.75
2024-02-21T22:35:19.217Z,6.50
2024-02-21T22:37:45.735Z,7.00
2024-02-21T22:40:12.363Z,5.40
2024-02-21T22:42:38.797Z,6.00
2024-02-21T22:45:05.501Z,6.00
2024-02-21T22:47:31.919Z,6.00
2024-02-21T22:49:58.394Z,5.00
2024-02-21T22:52:26.398Z,6.25
2024-02-21T22:54:53.068Z,8.00
2024-02-21T22:57:19.522Z,5.00
2024-02-21T22:59:47.761Z,5.00
2024-02-21T23:02:14.304Z,5.00
2024-02-21T23:04:40.846Z,5.50
2024-02-21T23:07:07.315Z,5.75
2024-02-21T23:09:33.800Z,5.60
2024-02-21T23:12:00.383Z,5.00
2024-02-21T23:14:27.138Z,6.00
2024-02-21T23:16:53.608Z,6.00
2024-02-21T23:19:20.288Z,4.00
2024-02-21T23:21:46.959Z,5.00
2024-02-21T23:24:13.431Z,5.00
2024-02-21T23:26:39.952Z,5.00
2024-02-21T23:29:06.574Z,4.25
2024-02-21T23:31:33.224Z,4.60
2024-02-21T23:33:59.857Z,3.80
2024-02-21T23:36:26.389Z,5.50
2024-02-21T23:38:52.842Z,5.00
2024-02-21T23:41:19.446Z,5.00
2024-02-21T23:43:46.080Z,5.00
2024-02-21T23:46:12.652Z,4.50
2024-02-21T23:48:39.650Z,8.00
2024-02-21T23:51:06.451Z,6.00
2024-02-21T23:53:33.158Z,7.00
2024-02-21T23:56:00.688Z,6.75
2024-02-21T23:58:28.011Z,7.00
